YLT weather

Alert Airport
Alert, Nunavut, Canada

Public forecast

Using degrees Celsius for public forecast. Weather courtesy of forecast.io.

METAR (pilot weather report)

Retrieved 2019/06/16 18:00 UTC (44 minutes ago):

CYLT 161800Z 22017KT 15SM FEW005 FEW120 BKN220 10/03 A3004 RMK CF1AC1CI6 CUFRA TR SLP177

TAF (pilot weather forecast)

Retrieved 2019/06/16 18:33 UTC (11 minutes ago):

TAF TAF CYLT 161730Z 1618/1706 22018G28KT P6SM FEW005 FEW120 BKN220 BECMG 1701/1703 23012KT RMK NXT FCST BY 170000Z